createdAt,value
2022-11-25T00:01:35.544Z,15.80
2022-11-25T00:04:04.201Z,7.70
2022-11-25T00:06:35.063Z,16.23
2022-11-25T00:09:12.775Z,6.30
2022-11-25T00:11:43.424Z,7.50
2022-11-25T00:14:16.359Z,8.73
2022-11-25T00:16:48.467Z,5.97
2022-11-25T00:19:17.617Z,13.83
2022-11-25T00:21:46.033Z,17.63
2022-11-25T00:24:16.908Z,5.57
2022-11-25T00:26:45.622Z,13.80
2022-11-25T00:29:15.304Z,8.13
2022-11-25T00:31:44.082Z,5.40
2022-11-25T00:34:16.066Z,7.53
2022-11-25T00:36:44.546Z,5.90
2022-11-25T00:39:15.866Z,5.50
2022-11-25T00:42:04.427Z,8.07
2022-11-25T00:44:41.285Z,7.20
2022-11-25T00:47:13.419Z,6.10
2022-11-25T00:49:44.279Z,7.80
2022-11-25T00:52:17.235Z,6.00
2022-11-25T00:54:47.270Z,7.47
2022-11-25T00:57:16.863Z,7.47
2022-11-25T00:59:45.307Z,6.60
2022-11-25T01:02:14.876Z,5.00
2022-11-25T01:04:43.280Z,5.60
2022-11-25T01:07:11.883Z,5.80
2022-11-25T01:09:40.346Z,6.03
2022-11-25T01:12:08.794Z,6.40
2022-11-25T01:14:37.552Z,5.50
2022-11-25T01:17:06.319Z,6.13
2022-11-25T01:19:35.879Z,5.77
2022-11-25T01:22:04.979Z,6.00
2022-11-25T01:24:33.490Z,5.97
2022-11-25T01:27:01.887Z,10.23
2022-11-25T01:29:30.335Z,15.70
2022-11-25T01:31:58.733Z,14.30
2022-11-25T01:34:29.143Z,8.30
2022-11-25T01:36:57.496Z,20.87
2022-11-25T01:39:32.532Z,13.27
2022-11-25T01:42:01.884Z,13.83
2022-11-25T01:44:32.647Z,9.90
2022-11-25T01:47:14.137Z,17.23
2022-11-25T01:49:44.391Z,13.87
2022-11-25T01:52:19.253Z,8.70
2022-11-25T01:55:14.441Z,8.30
2022-11-25T01:57:58.580Z,13.70
2022-11-25T02:00:27.015Z,14.03
2022-11-25T02:02:57.404Z,13.70
2022-11-25T02:05:37.474Z,8.27
2022-11-25T02:08:07.277Z,20.93
2022-11-25T02:10:36.687Z,8.60
2022-11-25T02:13:05.259Z,9.40
2022-11-25T02:15:36.222Z,8.80
2022-11-25T02:18:05.167Z,13.03
2022-11-25T02:20:33.651Z,14.03
2022-11-25T02:23:15.716Z,10.70
2022-11-25T02:25:46.178Z,6.90
2022-11-25T02:28:21.048Z,24.27
2022-11-25T02:30:49.935Z,8.90
2022-11-25T02:33:18.638Z,18.07
2022-11-25T02:35:52.016Z,8.70
2022-11-25T02:38:23.431Z,11.37
2022-11-25T02:41:04.507Z,8.27
2022-11-25T02:43:33.220Z,11.40
2022-11-25T02:46:05.385Z,12.93
2022-11-25T02:49:07.519Z,9.80
2022-11-25T02:51:29.499Z,9.03
2022-11-25T02:53:58.602Z,8.97
2022-11-25T02:56:29.920Z,8.60
2022-11-25T02:58:58.487Z,9.03
2022-11-25T03:01:26.956Z,14.10
2022-11-25T03:03:55.565Z,7.97
2022-11-25T03:06:24.308Z,11.07
2022-11-25T03:08:52.652Z,18.90
2022-11-25T03:11:21.082Z,9.00
2022-11-25T03:13:49.591Z,16.90
2022-11-25T03:16:17.964Z,9.13
2022-11-25T03:18:46.348Z,12.43
2022-11-25T03:21:14.707Z,8.23
2022-11-25T03:23:43.044Z,11.60
2022-11-25T03:26:11.403Z,8.10
2022-11-25T03:28:39.787Z,13.70
2022-11-25T03:31:12.936Z,12.23
2022-11-25T03:33:41.323Z,14.13
2022-11-25T03:36:09.780Z,15.90
2022-11-25T03:38:38.244Z,13.63
2022-11-25T03:41:07.636Z,12.43
2022-11-25T03:43:36.506Z,8.47
2022-11-25T03:46:04.935Z,11.77
2022-11-25T03:48:33.380Z,12.90
2022-11-25T03:51:01.739Z,13.60
2022-11-25T03:53:30.116Z,16.57
2022-11-25T03:55:58.529Z,11.30
2022-11-25T03:58:26.896Z,9.70
2022-11-25T04:00:55.338Z,21.80
2022-11-25T04:03:23.735Z,17.37
2022-11-25T04:05:52.127Z,19.23
2022-11-25T04:08:20.514Z,35.47
2022-11-25T04:10:51.226Z,15.73
2022-11-25T04:13:19.797Z,7.37
2022-11-25T04:15:49.671Z,7.50
2022-11-25T04:18:20.128Z,7.63
2022-11-25T04:20:48.575Z,6.90
2022-11-25T04:23:16.984Z,6.43
2022-11-25T04:25:45.405Z,6.60
2022-11-25T04:28:13.755Z,6.37
2022-11-25T04:30:42.352Z,6.23
2022-11-25T04:33:10.725Z,6.87
2022-11-25T04:35:39.077Z,6.43
2022-11-25T04:38:07.548Z,5.40
2022-11-25T04:40:35.927Z,6.47
2022-11-25T04:43:10.271Z,10.13
2022-11-25T04:45:59.002Z,6.73
2022-11-25T04:48:27.628Z,13.17
2022-11-25T04:50:56.962Z,10.30
2022-11-25T04:53:25.335Z,8.73
2022-11-25T04:55:53.668Z,6.37
2022-11-25T04:58:41.905Z,6.80
2022-11-25T05:01:10.367Z,20.70
2022-11-25T05:03:39.833Z,31.50
2022-11-25T05:06:11.444Z,14.37
2022-11-25T05:08:39.801Z,12.83
2022-11-25T05:11:08.169Z,8.60
2022-11-25T05:13:36.560Z,9.60
2022-11-25T05:16:04.967Z,8.17
2022-11-25T05:18:33.448Z,7.10
2022-11-25T05:21:06.348Z,6.30
2022-11-25T05:23:34.880Z,6.53
2022-11-25T05:26:04.859Z,12.83
2022-11-25T05:28:33.581Z,7.77
2022-11-25T05:31:02.050Z,9.20
2022-11-25T05:33:30.548Z,6.47
2022-11-25T05:36:04.307Z,6.53
2022-11-25T05:38:32.971Z,15.17
2022-11-25T05:41:07.322Z,13.77
2022-11-25T05:43:36.372Z,10.70
2022-11-25T05:46:11.036Z,11.23
2022-11-25T05:48:39.559Z,15.30
2022-11-25T05:51:09.773Z,8.00
2022-11-25T05:53:38.555Z,12.73
2022-11-25T05:56:08.279Z,14.67
2022-11-25T05:58:36.627Z,19.10
2022-11-25T06:01:09.621Z,11.40
2022-11-25T06:03:38.666Z,17.80
2022-11-25T06:06:08.369Z,13.33
2022-11-25T06:08:38.151Z,22.07
2022-11-25T06:11:08.467Z,17.00
2022-11-25T06:13:37.410Z,10.87
2022-11-25T06:16:10.910Z,15.83
2022-11-25T06:18:39.841Z,13.40
2022-11-25T06:21:09.412Z,15.63
2022-11-25T06:23:38.422Z,24.60
2022-11-25T06:26:33.121Z,24.20
2022-11-25T06:29:01.456Z,21.77
2022-11-25T06:31:29.890Z,25.70
2022-11-25T06:33:58.358Z,22.27
2022-11-25T06:36:26.753Z,22.57
2022-11-25T06:38:55.961Z,21.87
2022-11-25T06:41:24.378Z,23.67
2022-11-25T06:43:52.793Z,26.30
2022-11-25T06:46:25.175Z,28.17
2022-11-25T06:48:56.773Z,27.65
2022-11-25T06:51:25.352Z,24.83
2022-11-25T06:53:54.507Z,22.23
2022-11-25T06:56:25.915Z,27.88
2022-11-25T06:58:55.554Z,22.83
2022-11-25T07:01:29.298Z,22.10
2022-11-25T07:04:04.074Z,22.02
2022-11-25T07:06:34.539Z,22.90
2022-11-25T07:09:03.005Z,20.90
2022-11-25T07:11:34.033Z,28.50
2022-11-25T07:14:05.843Z,22.55
2022-11-25T07:16:34.647Z,32.45
2022-11-25T07:19:04.348Z,31.40
2022-11-25T07:21:34.175Z,32.40
2022-11-25T07:24:04.683Z,29.10
2022-11-25T07:26:36.287Z,30.52
2022-11-25T07:29:29.291Z,31.42
2022-11-25T07:31:56.905Z,29.13
2022-11-25T07:34:25.292Z,28.10
2022-11-25T07:36:53.641Z,29.38
2022-11-25T07:39:24.403Z,21.23
2022-11-25T07:41:55.836Z,23.90
2022-11-25T07:44:24.256Z,24.25
2022-11-25T07:46:53.052Z,24.10
2022-11-25T07:49:25.721Z,21.08
2022-11-25T07:51:57.486Z,21.25
2022-11-25T07:54:26.192Z,27.77
2022-11-25T07:56:54.619Z,24.90
2022-11-25T07:59:24.755Z,24.55
2022-11-25T08:01:55.072Z,22.08
2022-11-25T08:04:23.887Z,24.98
2022-11-25T08:06:53.760Z,25.05
2022-11-25T08:09:24.741Z,21.45
2022-11-25T08:11:53.734Z,22.05
2022-11-25T08:14:22.902Z,23.38
2022-11-25T08:16:51.286Z,21.65
2022-11-25T08:19:20.475Z,21.25
2022-11-25T08:21:49.173Z,22.35
2022-11-25T08:24:21.920Z,19.60
2022-11-25T08:26:50.488Z,21.08
2022-11-25T08:29:20.280Z,19.30
2022-11-25T08:31:48.880Z,20.20
2022-11-25T08:34:23.572Z,19.95
2022-11-25T08:36:53.126Z,27.27
2022-11-25T08:39:50.447Z,20.02
2022-11-25T08:42:11.334Z,19.85
2022-11-25T08:44:39.844Z,18.52
2022-11-25T08:47:08.207Z,21.77
2022-11-25T08:49:41.198Z,18.30
2022-11-25T08:52:11.283Z,25.38
2022-11-25T08:54:39.799Z,25.52
2022-11-25T08:57:08.225Z,25.67
2022-11-25T08:59:37.046Z,20.98
2022-11-25T09:02:06.793Z,21.08
2022-11-25T09:04:35.584Z,18.92
2022-11-25T09:07:06.015Z,25.55
2022-11-25T09:09:34.853Z,17.77
2022-11-25T09:12:03.899Z,20.90
2022-11-25T09:14:32.548Z,20.67
2022-11-25T09:17:02.763Z,20.33
2022-11-25T09:19:31.135Z,21.98
2022-11-25T09:21:59.488Z,21.23
2022-11-25T09:24:27.880Z,19.58
2022-11-25T09:26:56.277Z,17.00
2022-11-25T09:29:24.696Z,18.50
2022-11-25T09:31:55.003Z,15.32
2022-11-25T09:34:23.645Z,17.58
2022-11-25T09:36:52.596Z,16.05
2022-11-25T09:39:21.311Z,16.38
2022-11-25T09:42:42.918Z,22.15
2022-11-25T09:45:44.043Z,18.63
2022-11-25T09:48:53.466Z,22.52
2022-11-25T09:51:46.189Z,17.83
2022-11-25T09:54:22.256Z,19.17
2022-11-25T09:57:01.692Z,18.95
2022-11-25T09:59:53.768Z,18.95
2022-11-25T10:02:34.730Z,18.27
2022-11-25T10:05:19.548Z,19.55
2022-11-25T10:08:04.623Z,16.70
2022-11-25T10:10:48.552Z,20.75
2022-11-25T10:13:28.808Z,19.45
2022-11-25T10:16:00.621Z,29.10
2022-11-25T10:18:40.051Z,36.17
2022-11-25T10:21:12.140Z,79.60
2022-11-25T10:23:41.506Z,100.43
2022-11-25T10:26:23.880Z,106.07
2022-11-25T10:29:15.354Z,59.92
2022-11-25T10:31:45.103Z,67.95
2022-11-25T10:34:35.371Z,51.25
2022-11-25T10:37:12.179Z,25.15
2022-11-25T10:39:40.660Z,22.77
2022-11-25T10:42:24.164Z,22.90
2022-11-25T10:44:53.127Z,23.33
2022-11-25T10:47:38.150Z,18.17
2022-11-25T10:50:31.049Z,25.02
2022-11-25T10:53:03.536Z,23.85
2022-11-25T10:55:34.268Z,21.70
2022-11-25T10:58:32.025Z,16.70
2022-11-25T11:01:23.686Z,15.85
2022-11-25T11:04:11.663Z,15.63
2022-11-25T11:06:46.240Z,18.88
2022-11-25T11:09:36.856Z,18.75
2022-11-25T11:12:20.352Z,19.90
2022-11-25T11:14:49.485Z,20.40
2022-11-25T11:17:36.722Z,16.90
2022-11-25T11:20:17.040Z,21.58
2022-11-25T11:23:08.392Z,16.15
2022-11-25T11:25:40.005Z,17.27
2022-11-25T11:28:34.124Z,15.70
2022-11-25T11:31:04.138Z,17.13
2022-11-25T11:33:59.160Z,16.80
2022-11-25T11:36:36.708Z,28.38
2022-11-25T11:39:28.032Z,16.17
2022-11-25T11:42:02.558Z,23.90
2022-11-25T11:45:06.373Z,19.15
2022-11-25T11:48:15.318Z,21.25
2022-11-25T11:51:02.524Z,23.30
2022-11-25T11:53:52.363Z,24.88
2022-11-25T11:56:55.784Z,16.70
2022-11-25T11:59:56.277Z,15.85
2022-11-25T12:02:46.850Z,18.90
2022-11-25T12:05:19.550Z,17.80
2022-11-25T12:07:54.069Z,18.80
2022-11-25T12:10:25.428Z,15.88
2022-11-25T12:13:13.052Z,14.63
2022-11-25T12:15:58.843Z,14.75
2022-11-25T12:18:54.689Z,16.98
2022-11-25T12:21:41.888Z,13.48
2022-11-25T12:24:32.848Z,14.38
2022-11-25T12:27:32.738Z,19.63
2022-11-25T12:30:08.030Z,13.18
2022-11-25T12:32:36.355Z,13.15
2022-11-25T12:35:07.559Z,13.65
2022-11-25T12:38:13.155Z,13.20
2022-11-25T12:40:56.384Z,12.90
2022-11-25T12:43:49.654Z,18.13
2022-11-25T12:46:41.037Z,14.25
2022-11-25T12:49:26.802Z,14.02
2022-11-25T12:52:29.581Z,12.80
2022-11-25T12:55:12.261Z,17.40
2022-11-25T12:57:49.867Z,18.52
2022-11-25T13:00:43.530Z,24.92
2022-11-25T13:03:27.342Z,27.30
2022-11-25T13:06:39.437Z,21.50
2022-11-25T13:09:39.967Z,19.35
2022-11-25T13:12:20.126Z,14.98
2022-11-25T13:15:10.422Z,23.40
2022-11-25T13:17:42.981Z,15.65
2022-11-25T13:20:31.537Z,23.55
2022-11-25T13:23:04.254Z,18.98
2022-11-25T13:25:33.826Z,16.70
2022-11-25T13:28:04.629Z,16.20
2022-11-25T13:30:37.347Z,23.95
2022-11-25T13:33:14.733Z,19.08
2022-11-25T13:35:46.919Z,16.02
2022-11-25T13:38:38.656Z,20.40
2022-11-25T13:41:13.176Z,16.45
2022-11-25T13:44:02.403Z,18.65
2022-11-25T13:46:54.979Z,21.63
2022-11-25T13:50:04.788Z,17.00
2022-11-25T13:52:48.051Z,17.13
2022-11-25T13:55:19.443Z,17.75
2022-11-25T13:58:02.075Z,22.05
2022-11-25T14:00:48.631Z,20.10
2022-11-25T14:03:22.972Z,14.43
2022-11-25T14:05:57.472Z,13.77
2022-11-25T14:08:38.026Z,13.02
2022-11-25T14:11:12.456Z,15.50
2022-11-25T14:13:59.169Z,15.65
2022-11-25T14:16:48.923Z,14.73
2022-11-25T14:19:57.562Z,16.55
2022-11-25T14:23:03.217Z,15.07
2022-11-25T14:25:51.048Z,13.15
2022-11-25T14:28:40.184Z,13.20
2022-11-25T14:31:13.319Z,13.35
2022-11-25T14:33:56.790Z,11.40
2022-11-25T14:36:40.352Z,17.55
2022-11-25T14:39:39.039Z,13.32
2022-11-25T14:42:14.633Z,11.50
2022-11-25T14:44:56.557Z,11.77
2022-11-25T14:47:37.543Z,14.85
2022-11-25T14:53:12.208Z,22.52
2022-11-25T14:55:40.705Z,15.95
2022-11-25T14:58:14.003Z,14.27
2022-11-25T15:01:05.196Z,13.25
2022-11-25T15:03:34.534Z,16.63
2022-11-25T15:06:06.264Z,13.45
2022-11-25T15:08:45.787Z,24.20
2022-11-25T15:11:26.067Z,18.38
2022-11-25T15:14:07.394Z,17.42
2022-11-25T15:16:42.215Z,24.35
2022-11-25T15:19:20.088Z,23.45
2022-11-25T15:22:21.947Z,20.00
2022-11-25T15:24:50.137Z,16.75
2022-11-25T15:27:22.863Z,19.88
2022-11-25T15:29:51.288Z,20.95
2022-11-25T15:32:31.112Z,13.57
2022-11-25T15:35:02.126Z,19.15
2022-11-25T15:37:30.795Z,17.08
2022-11-25T15:40:49.878Z,16.73
2022-11-25T15:43:28.221Z,11.63
2022-11-25T15:46:02.538Z,17.25
2022-11-25T15:48:36.215Z,12.40
2022-11-25T15:51:08.063Z,12.60
2022-11-25T15:53:40.397Z,14.45
2022-11-25T15:56:13.386Z,14.80
2022-11-25T15:58:43.927Z,14.68
2022-11-25T16:01:18.838Z,16.75
2022-11-25T16:03:48.717Z,21.75
2022-11-25T16:06:28.592Z,18.40
2022-11-25T16:09:04.647Z,18.35
2022-11-25T16:11:46.289Z,14.15
2022-11-25T16:14:29.363Z,16.27
2022-11-25T16:17:09.896Z,17.15
2022-11-25T16:19:48.096Z,16.48
2022-11-25T16:22:21.365Z,14.60
2022-11-25T16:25:02.046Z,14.52
2022-11-25T16:27:32.225Z,14.65
2022-11-25T16:30:06.624Z,11.75
2022-11-25T16:32:35.178Z,13.82
2022-11-25T16:35:23.813Z,11.63
2022-11-25T16:37:52.175Z,11.60
2022-11-25T16:40:20.861Z,11.05
2022-11-25T16:42:51.315Z,12.63
2022-11-25T16:45:23.075Z,13.17
2022-11-25T16:47:51.659Z,16.85
2022-11-25T16:50:21.779Z,14.60
2022-11-25T16:52:50.862Z,13.63
2022-11-25T16:55:19.841Z,11.03
2022-11-25T16:57:48.529Z,11.00
2022-11-25T17:00:18.379Z,13.23
2022-11-25T17:02:46.957Z,14.33
2022-11-25T17:05:26.387Z,13.03
2022-11-25T17:07:54.885Z,14.20
2022-11-25T17:10:23.380Z,14.65
2022-11-25T17:12:52.293Z,12.50
2022-11-25T17:15:26.098Z,13.20
2022-11-25T17:17:54.645Z,11.83
2022-11-25T17:20:25.643Z,11.70
2022-11-25T17:22:54.873Z,12.85
2022-11-25T17:25:25.183Z,11.27
2022-11-25T17:27:53.860Z,13.03
2022-11-25T17:30:27.384Z,10.63
2022-11-25T17:33:08.027Z,12.57
2022-11-25T17:35:36.448Z,11.90
2022-11-25T17:38:21.854Z,11.63
2022-11-25T17:40:51.429Z,12.40
2022-11-25T17:43:21.890Z,11.70
2022-11-25T17:45:50.322Z,9.50
2022-11-25T17:48:19.539Z,12.10
2022-11-25T17:50:48.296Z,11.40
2022-11-25T17:53:16.691Z,11.60
2022-11-25T17:55:45.057Z,9.40
2022-11-25T17:58:20.041Z,8.30
2022-11-25T18:00:49.582Z,7.90
2022-11-25T18:03:18.548Z,7.40
2022-11-25T18:05:46.972Z,7.63
2022-11-25T18:08:15.380Z,6.80
2022-11-25T18:10:48.093Z,8.00
2022-11-25T18:13:17.761Z,7.93
2022-11-25T18:15:46.319Z,8.33
2022-11-25T18:18:24.396Z,8.60
2022-11-25T18:20:53.805Z,7.60
2022-11-25T18:23:22.218Z,9.63
2022-11-25T18:25:51.140Z,8.40
2022-11-25T18:28:25.686Z,8.40
2022-11-25T18:31:03.640Z,9.97
2022-11-25T18:33:32.572Z,8.30
2022-11-25T18:36:01.028Z,8.77
2022-11-25T18:38:29.507Z,9.50
2022-11-25T18:40:58.063Z,9.03
2022-11-25T18:43:28.575Z,9.17
2022-11-25T18:45:58.061Z,8.87
2022-11-25T18:48:28.072Z,10.17
2022-11-25T18:50:59.825Z,9.00
2022-11-25T18:53:28.203Z,10.17
2022-11-25T18:55:56.695Z,9.53
2022-11-25T18:58:30.350Z,9.90
2022-11-25T19:01:06.859Z,11.40
2022-11-25T19:03:35.263Z,14.17
2022-11-25T19:06:04.083Z,18.17
2022-11-25T19:08:32.521Z,14.30
2022-11-25T19:11:01.055Z,15.27
2022-11-25T19:13:36.511Z,13.57
2022-11-25T19:16:13.637Z,15.30
2022-11-25T19:18:44.812Z,14.20
2022-11-25T19:21:18.653Z,13.10
2022-11-25T19:23:47.673Z,12.23
2022-11-25T19:26:26.809Z,13.77
2022-11-25T19:29:02.596Z,11.37
2022-11-25T19:31:34.078Z,14.10
2022-11-25T19:34:03.060Z,13.27
2022-11-25T19:36:32.036Z,13.80
2022-11-25T19:39:00.414Z,13.67
2022-11-25T19:41:28.743Z,14.93
2022-11-25T19:43:57.077Z,12.70
2022-11-25T19:46:41.189Z,15.50
2022-11-25T19:49:20.753Z,13.07
2022-11-25T19:51:49.844Z,13.50
2022-11-25T19:54:20.288Z,12.03
2022-11-25T19:56:48.777Z,13.10
2022-11-25T19:59:17.169Z,14.07
2022-11-25T20:01:47.361Z,13.60
2022-11-25T20:04:22.060Z,24.90
2022-11-25T20:06:51.090Z,28.00
2022-11-25T20:09:19.479Z,17.70
2022-11-25T20:11:48.294Z,15.03
2022-11-25T20:14:16.660Z,13.83
2022-11-25T20:16:45.101Z,14.17
2022-11-25T20:19:19.601Z,15.40
2022-11-25T20:21:49.379Z,12.70
2022-11-25T20:24:20.806Z,14.23
2022-11-25T20:26:49.651Z,10.53
2022-11-25T20:29:24.526Z,10.23
2022-11-25T20:31:57.042Z,8.37
2022-11-25T20:34:25.653Z,10.70
2022-11-25T20:36:54.303Z,13.10
2022-11-25T20:39:22.744Z,9.67
2022-11-25T20:41:52.687Z,8.97
2022-11-25T20:44:21.793Z,7.00
2022-11-25T20:46:50.222Z,6.20
2022-11-25T20:49:29.925Z,6.77
2022-11-25T20:51:58.700Z,12.53
2022-11-25T20:54:27.207Z,7.70
2022-11-25T20:56:57.980Z,7.60
2022-11-25T20:59:26.607Z,7.33
2022-11-25T21:01:55.450Z,7.70
2022-11-25T21:04:24.044Z,6.70
2022-11-25T21:06:52.527Z,7.87
2022-11-25T21:09:35.408Z,9.40
2022-11-25T21:12:04.260Z,7.80
2022-11-25T21:14:32.640Z,8.33
2022-11-25T21:17:01.070Z,8.33
2022-11-25T21:19:29.421Z,9.60
2022-11-25T21:21:57.978Z,8.43
2022-11-25T21:24:42.430Z,8.20
2022-11-25T21:27:16.433Z,9.90
2022-11-25T21:29:46.827Z,7.80
2022-11-25T21:32:27.263Z,6.50
2022-11-25T21:34:57.684Z,8.20
2022-11-25T21:37:35.778Z,9.57
2022-11-25T21:40:05.826Z,7.03
2022-11-25T21:42:34.505Z,17.37
2022-11-25T21:45:02.869Z,10.80
2022-11-25T21:47:31.484Z,7.87
2022-11-25T21:50:00.105Z,7.10
2022-11-25T21:52:28.457Z,10.50
2022-11-25T21:54:56.845Z,11.83
2022-11-25T21:57:29.502Z,7.83
2022-11-25T21:59:57.937Z,7.23
2022-11-25T22:02:26.514Z,7.67
2022-11-25T22:04:55.756Z,11.77
2022-11-25T22:07:29.181Z,10.80
2022-11-25T22:09:59.018Z,12.47
2022-11-25T22:12:34.384Z,17.60
2022-11-25T22:15:07.245Z,12.93
2022-11-25T22:17:35.679Z,12.40
2022-11-25T22:20:05.398Z,9.80
2022-11-25T22:22:34.007Z,8.20
2022-11-25T22:25:02.404Z,8.90
2022-11-25T22:27:37.043Z,10.33
2022-11-25T22:30:06.234Z,11.10
2022-11-25T22:32:34.681Z,10.33
2022-11-25T22:35:03.030Z,8.20
2022-11-25T22:37:33.061Z,7.97
2022-11-25T22:40:01.410Z,7.80
2022-11-25T22:42:33.634Z,9.53
2022-11-25T22:45:04.857Z,7.20
2022-11-25T22:47:44.656Z,11.23
2022-11-25T22:50:23.805Z,8.60
2022-11-25T22:52:53.671Z,9.30
2022-11-25T22:55:25.712Z,16.00
2022-11-25T22:57:56.070Z,13.77
2022-11-25T23:00:31.240Z,27.03
2022-11-25T23:03:01.177Z,14.73
2022-11-25T23:05:33.827Z,10.43
2022-11-25T23:08:04.089Z,47.33
2022-11-25T23:10:33.521Z,17.17
2022-11-25T23:13:01.890Z,15.00
2022-11-25T23:15:31.303Z,19.07
2022-11-25T23:18:01.656Z,11.53
2022-11-25T23:20:33.079Z,11.40
2022-11-25T23:23:23.008Z,15.03
2022-11-25T23:25:52.143Z,9.83
2022-11-25T23:28:21.181Z,10.97
2022-11-25T23:30:59.993Z,9.80
2022-11-25T23:33:39.662Z,10.30
2022-11-25T23:36:18.766Z,11.57
2022-11-25T23:38:59.205Z,9.50
2022-11-25T23:41:32.888Z,7.63
2022-11-25T23:44:27.673Z,10.47
2022-11-25T23:47:02.090Z,17.70
2022-11-25T23:49:33.543Z,8.67
2022-11-25T23:52:07.730Z,9.43
2022-11-25T23:54:41.806Z,10.10
2022-11-25T23:57:20.877Z,8.73
2022-11-25T23:59:49.853Z,15.43
